sensor_id;sensor_type;location;lat;lon;timestamp;P1;durP1;ratioP1;P2;durP2;ratioP2
27618;SDS011;15039;50.830;4.730;2023-05-28T00:01:11;8.48;;;3.50;;
27618;SDS011;15039;50.830;4.730;2023-05-28T00:03:36;6.93;;;3.65;;
27618;SDS011;15039;50.830;4.730;2023-05-28T00:06:02;7.80;;;3.90;;
27618;SDS011;15039;50.830;4.730;2023-05-28T00:08:29;7.72;;;3.78;;
27618;SDS011;15039;50.830;4.730;2023-05-28T00:10:54;6.55;;;3.58;;
27618;SDS011;15039;50.830;4.730;2023-05-28T00:13:25;7.63;;;3.90;;
27618;SDS011;15039;50.830;4.730;2023-05-28T00:15:52;6.78;;;3.95;;
27618;SDS011;15039;50.830;4.730;2023-05-28T00:18:18;8.80;;;4.07;;
27618;SDS011;15039;50.830;4.730;2023-05-28T00:20:43;12.13;;;4.40;;
27618;SDS011;15039;50.830;4.730;2023-05-28T00:23:10;9.68;;;4.07;;
27618;SDS011;15039;50.830;4.730;2023-05-28T00:25:35;9.93;;;4.07;;
27618;SDS011;15039;50.830;4.730;2023-05-28T00:28:01;7.90;;;4.53;;
27618;SDS011;15039;50.830;4.730;2023-05-28T00:30:27;11.10;;;4.53;;
27618;SDS011;15039;50.830;4.730;2023-05-28T00:32:53;8.27;;;4.25;;
27618;SDS011;15039;50.830;4.730;2023-05-28T00:35:18;8.50;;;4.13;;
27618;SDS011;15039;50.830;4.730;2023-05-28T00:37:44;9.95;;;4.85;;
27618;SDS011;15039;50.830;4.730;2023-05-28T00:40:09;9.43;;;4.47;;
27618;SDS011;15039;50.830;4.730;2023-05-28T00:42:36;9.43;;;4.10;;
27618;SDS011;15039;50.830;4.730;2023-05-28T00:45:02;7.15;;;4.25;;
27618;SDS011;15039;50.830;4.730;2023-05-28T00:47:28;10.40;;;4.45;;
27618;SDS011;15039;50.830;4.730;2023-05-28T00:49:53;7.93;;;4.50;;
27618;SDS011;15039;50.830;4.730;2023-05-28T00:52:20;9.43;;;4.07;;
27618;SDS011;15039;50.830;4.730;2023-05-28T00:54:47;8.57;;;4.07;;
27618;SDS011;15039;50.830;4.730;2023-05-28T00:57:14;11.65;;;4.38;;
27618;SDS011;15039;50.830;4.730;2023-05-28T00:59:40;8.30;;;4.75;;
27618;SDS011;15039;50.830;4.730;2023-05-28T01:02:07;10.35;;;4.95;;
27618;SDS011;15039;50.830;4.730;2023-05-28T01:04:34;10.65;;;4.72;;
27618;SDS011;15039;50.830;4.730;2023-05-28T01:07:01;12.70;;;4.50;;
27618;SDS011;15039;50.830;4.730;2023-05-28T01:09:26;8.23;;;4.47;;
27618;SDS011;15039;50.830;4.730;2023-05-28T01:11:52;8.18;;;4.85;;
27618;SDS011;15039;50.830;4.730;2023-05-28T01:14:19;9.25;;;3.95;;
27618;SDS011;15039;50.830;4.730;2023-05-28T01:16:45;9.98;;;5.03;;
27618;SDS011;15039;50.830;4.730;2023-05-28T01:19:13;9.85;;;4.88;;
27618;SDS011;15039;50.830;4.730;2023-05-28T01:21:43;8.65;;;5.28;;
27618;SDS011;15039;50.830;4.730;2023-05-28T01:24:11;17.55;;;5.00;;
27618;SDS011;15039;50.830;4.730;2023-05-28T01:26:39;7.05;;;4.60;;
27618;SDS011;15039;50.830;4.730;2023-05-28T01:29:15;11.57;;;5.00;;
27618;SDS011;15039;50.830;4.730;2023-05-28T01:31:41;7.70;;;4.95;;
27618;SDS011;15039;50.830;4.730;2023-05-28T01:34:07;9.15;;;4.70;;
27618;SDS011;15039;50.830;4.730;2023-05-28T01:36:40;11.93;;;5.10;;
27618;SDS011;15039;50.830;4.730;2023-05-28T01:39:24;11.50;;;5.30;;
27618;SDS011;15039;50.830;4.730;2023-05-28T01:41:52;11.68;;;5.55;;
27618;SDS011;15039;50.830;4.730;2023-05-28T01:44:18;7.50;;;4.80;;
27618;SDS011;15039;50.830;4.730;2023-05-28T01:46:47;14.15;;;5.13;;
27618;SDS011;15039;50.830;4.730;2023-05-28T01:49:15;10.93;;;5.40;;
27618;SDS011;15039;50.830;4.730;2023-05-28T01:51:41;11.30;;;5.55;;
27618;SDS011;15039;50.830;4.730;2023-05-28T01:54:07;16.38;;;5.80;;
27618;SDS011;15039;50.830;4.730;2023-05-28T01:56:32;13.43;;;5.80;;
27618;SDS011;15039;50.830;4.730;2023-05-28T01:58:58;11.10;;;5.10;;
27618;SDS011;15039;50.830;4.730;2023-05-28T02:01:28;10.90;;;5.25;;
27618;SDS011;15039;50.830;4.730;2023-05-28T02:03:55;10.35;;;5.05;;
27618;SDS011;15039;50.830;4.730;2023-05-28T02:06:21;10.50;;;5.28;;
27618;SDS011;15039;50.830;4.730;2023-05-28T02:08:48;12.75;;;5.90;;
27618;SDS011;15039;50.830;4.730;2023-05-28T02:11:13;11.25;;;5.60;;
27618;SDS011;15039;50.830;4.730;2023-05-28T02:13:39;8.18;;;5.22;;
27618;SDS011;15039;50.830;4.730;2023-05-28T02:16:06;9.02;;;5.30;;
27618;SDS011;15039;50.830;4.730;2023-05-28T02:18:32;10.98;;;6.05;;
27618;SDS011;15039;50.830;4.730;2023-05-28T02:20:58;13.32;;;5.90;;
27618;SDS011;15039;50.830;4.730;2023-05-28T02:23:23;11.52;;;5.90;;
27618;SDS011;15039;50.830;4.730;2023-05-28T02:25:49;9.15;;;5.57;;
27618;SDS011;15039;50.830;4.730;2023-05-28T02:28:15;12.05;;;5.50;;
27618;SDS011;15039;50.830;4.730;2023-05-28T02:30:40;11.18;;;5.65;;
27618;SDS011;15039;50.830;4.730;2023-05-28T02:33:06;11.25;;;6.20;;
27618;SDS011;15039;50.830;4.730;2023-05-28T02:35:32;9.15;;;5.38;;
27618;SDS011;15039;50.830;4.730;2023-05-28T02:37:57;12.48;;;5.72;;
27618;SDS011;15039;50.830;4.730;2023-05-28T02:40:23;11.75;;;6.13;;
27618;SDS011;15039;50.830;4.730;2023-05-28T02:42:48;12.07;;;5.63;;
27618;SDS011;15039;50.830;4.730;2023-05-28T02:45:15;10.23;;;5.70;;
27618;SDS011;15039;50.830;4.730;2023-05-28T02:47:40;11.05;;;5.60;;
27618;SDS011;15039;50.830;4.730;2023-05-28T02:50:06;10.73;;;6.50;;
27618;SDS011;15039;50.830;4.730;2023-05-28T02:52:32;11.45;;;6.05;;
27618;SDS011;15039;50.830;4.730;2023-05-28T02:54:58;14.20;;;5.95;;
27618;SDS011;15039;50.830;4.730;2023-05-28T02:57:24;12.40;;;6.88;;
27618;SDS011;15039;50.830;4.730;2023-05-28T02:59:50;10.90;;;5.88;;
27618;SDS011;15039;50.830;4.730;2023-05-28T03:02:16;10.70;;;6.00;;
27618;SDS011;15039;50.830;4.730;2023-05-28T03:04:41;8.68;;;5.85;;
27618;SDS011;15039;50.830;4.730;2023-05-28T03:07:07;14.20;;;5.93;;
27618;SDS011;15039;50.830;4.730;2023-05-28T03:09:35;11.77;;;5.85;;
27618;SDS011;15039;50.830;4.730;2023-05-28T03:12:02;11.93;;;6.40;;
27618;SDS011;15039;50.830;4.730;2023-05-28T03:14:28;14.50;;;5.55;;
27618;SDS011;15039;50.830;4.730;2023-05-28T03:16:53;10.77;;;6.32;;
27618;SDS011;15039;50.830;4.730;2023-05-28T03:19:19;11.45;;;6.38;;
27618;SDS011;15039;50.830;4.730;2023-05-28T03:21:45;12.32;;;5.60;;
27618;SDS011;15039;50.830;4.730;2023-05-28T03:24:11;8.43;;;5.03;;
27618;SDS011;15039;50.830;4.730;2023-05-28T03:26:36;11.38;;;5.50;;
27618;SDS011;15039;50.830;4.730;2023-05-28T03:29:02;11.77;;;5.35;;
27618;SDS011;15039;50.830;4.730;2023-05-28T03:31:28;10.20;;;6.38;;
27618;SDS011;15039;50.830;4.730;2023-05-28T03:36:23;12.10;;;6.45;;
27618;SDS011;15039;50.830;4.730;2023-05-28T03:38:51;14.87;;;6.63;;
27618;SDS011;15039;50.830;4.730;2023-05-28T03:41:17;14.52;;;6.60;;
27618;SDS011;15039;50.830;4.730;2023-05-28T03:43:42;12.02;;;5.95;;
27618;SDS011;15039;50.830;4.730;2023-05-28T03:46:08;10.90;;;5.72;;
27618;SDS011;15039;50.830;4.730;2023-05-28T03:48:34;11.45;;;6.68;;
27618;SDS011;15039;50.830;4.730;2023-05-28T03:50:59;16.20;;;6.10;;
27618;SDS011;15039;50.830;4.730;2023-05-28T03:53:25;9.10;;;6.07;;
27618;SDS011;15039;50.830;4.730;2023-05-28T03:55:51;10.65;;;5.57;;
27618;SDS011;15039;50.830;4.730;2023-05-28T03:58:17;10.13;;;5.57;;
27618;SDS011;15039;50.830;4.730;2023-05-28T04:00:43;10.90;;;5.75;;
27618;SDS011;15039;50.830;4.730;2023-05-28T04:03:08;8.70;;;5.50;;
27618;SDS011;15039;50.830;4.730;2023-05-28T04:05:34;11.80;;;6.63;;
27618;SDS011;15039;50.830;4.730;2023-05-28T04:08:00;13.80;;;6.43;;
27618;SDS011;15039;50.830;4.730;2023-05-28T04:10:27;8.38;;;5.32;;
27618;SDS011;15039;50.830;4.730;2023-05-28T04:12:52;11.43;;;6.05;;
27618;SDS011;15039;50.830;4.730;2023-05-28T04:15:20;11.85;;;6.18;;
27618;SDS011;15039;50.830;4.730;2023-05-28T04:17:45;9.70;;;5.80;;
27618;SDS011;15039;50.830;4.730;2023-05-28T04:20:11;9.93;;;6.30;;
27618;SDS011;15039;50.830;4.730;2023-05-28T04:22:37;13.48;;;6.50;;
27618;SDS011;15039;50.830;4.730;2023-05-28T04:25:03;13.23;;;6.93;;
27618;SDS011;15039;50.830;4.730;2023-05-28T04:27:29;9.05;;;6.18;;
27618;SDS011;15039;50.830;4.730;2023-05-28T04:29:55;10.57;;;5.88;;
27618;SDS011;15039;50.830;4.730;2023-05-28T04:32:22;10.73;;;6.63;;
27618;SDS011;15039;50.830;4.730;2023-05-28T04:34:48;15.43;;;7.30;;
27618;SDS011;15039;50.830;4.730;2023-05-28T04:37:16;11.88;;;6.72;;
27618;SDS011;15039;50.830;4.730;2023-05-28T04:39:42;11.80;;;7.03;;
27618;SDS011;15039;50.830;4.730;2023-05-28T04:42:08;13.45;;;7.07;;
27618;SDS011;15039;50.830;4.730;2023-05-28T04:44:38;15.15;;;6.60;;
27618;SDS011;15039;50.830;4.730;2023-05-28T04:47:05;13.45;;;8.02;;
27618;SDS011;15039;50.830;4.730;2023-05-28T04:49:31;15.23;;;7.05;;
27618;SDS011;15039;50.830;4.730;2023-05-28T04:51:57;13.25;;;7.10;;
27618;SDS011;15039;50.830;4.730;2023-05-28T04:54:22;12.30;;;7.38;;
27618;SDS011;15039;50.830;4.730;2023-05-28T04:56:48;13.43;;;7.03;;
27618;SDS011;15039;50.830;4.730;2023-05-28T04:59:14;11.88;;;7.47;;
27618;SDS011;15039;50.830;4.730;2023-05-28T05:01:39;9.73;;;6.85;;
27618;SDS011;15039;50.830;4.730;2023-05-28T05:04:07;16.73;;;7.05;;
27618;SDS011;15039;50.830;4.730;2023-05-28T05:06:33;14.15;;;7.15;;
27618;SDS011;15039;50.830;4.730;2023-05-28T05:08:59;15.18;;;7.10;;
27618;SDS011;15039;50.830;4.730;2023-05-28T05:11:25;14.80;;;7.85;;
27618;SDS011;15039;50.830;4.730;2023-05-28T05:13:53;15.23;;;7.50;;
27618;SDS011;15039;50.830;4.730;2023-05-28T05:16:19;13.60;;;7.53;;
27618;SDS011;15039;50.830;4.730;2023-05-28T05:18:45;18.27;;;8.30;;
27618;SDS011;15039;50.830;4.730;2023-05-28T05:21:12;13.35;;;7.45;;
27618;SDS011;15039;50.830;4.730;2023-05-28T05:23:38;16.85;;;8.13;;
27618;SDS011;15039;50.830;4.730;2023-05-28T05:26:05;12.00;;;7.60;;
27618;SDS011;15039;50.830;4.730;2023-05-28T05:28:42;13.43;;;8.15;;
27618;SDS011;15039;50.830;4.730;2023-05-28T05:31:09;12.80;;;7.65;;
27618;SDS011;15039;50.830;4.730;2023-05-28T05:33:37;12.73;;;7.20;;
27618;SDS011;15039;50.830;4.730;2023-05-28T05:36:03;15.32;;;8.43;;
27618;SDS011;15039;50.830;4.730;2023-05-28T05:38:29;14.63;;;7.53;;
27618;SDS011;15039;50.830;4.730;2023-05-28T05:40:55;14.43;;;7.65;;
27618;SDS011;15039;50.830;4.730;2023-05-28T05:43:21;16.75;;;8.65;;
27618;SDS011;15039;50.830;4.730;2023-05-28T05:45:47;13.48;;;7.50;;
27618;SDS011;15039;50.830;4.730;2023-05-28T05:48:13;15.57;;;8.07;;
27618;SDS011;15039;50.830;4.730;2023-05-28T05:50:51;14.00;;;7.80;;
27618;SDS011;15039;50.830;4.730;2023-05-28T05:53:21;13.15;;;7.72;;
27618;SDS011;15039;50.830;4.730;2023-05-28T05:55:47;14.95;;;7.85;;
27618;SDS011;15039;50.830;4.730;2023-05-28T05:58:13;14.45;;;8.80;;
27618;SDS011;15039;50.830;4.730;2023-05-28T06:00:39;11.57;;;8.20;;
27618;SDS011;15039;50.830;4.730;2023-05-28T06:03:06;10.93;;;7.72;;
27618;SDS011;15039;50.830;4.730;2023-05-28T06:05:32;13.10;;;7.78;;
27618;SDS011;15039;50.830;4.730;2023-05-28T06:07:58;13.20;;;6.95;;
27618;SDS011;15039;50.830;4.730;2023-05-28T06:10:24;13.05;;;7.18;;
27618;SDS011;15039;50.830;4.730;2023-05-28T06:12:49;12.15;;;6.15;;
27618;SDS011;15039;50.830;4.730;2023-05-28T06:15:16;10.70;;;6.78;;
27618;SDS011;15039;50.830;4.730;2023-05-28T06:17:41;12.55;;;7.18;;
27618;SDS011;15039;50.830;4.730;2023-05-28T06:20:08;12.18;;;7.05;;
27618;SDS011;15039;50.830;4.730;2023-05-28T06:22:35;9.07;;;6.30;;
27618;SDS011;15039;50.830;4.730;2023-05-28T06:25:01;16.08;;;6.47;;
27618;SDS011;15039;50.830;4.730;2023-05-28T06:27:28;12.27;;;6.68;;
27618;SDS011;15039;50.830;4.730;2023-05-28T06:29:53;9.90;;;6.32;;
27618;SDS011;15039;50.830;4.730;2023-05-28T06:32:19;13.95;;;7.50;;
27618;SDS011;15039;50.830;4.730;2023-05-28T06:34:45;14.00;;;7.05;;
27618;SDS011;15039;50.830;4.730;2023-05-28T06:37:11;9.63;;;6.30;;
27618;SDS011;15039;50.830;4.730;2023-05-28T06:39:37;10.68;;;6.55;;
27618;SDS011;15039;50.830;4.730;2023-05-28T06:42:03;14.18;;;6.97;;
27618;SDS011;15039;50.830;4.730;2023-05-28T06:44:28;11.75;;;6.78;;
27618;SDS011;15039;50.830;4.730;2023-05-28T06:46:54;14.10;;;7.30;;
27618;SDS011;15039;50.830;4.730;2023-05-28T06:49:20;20.75;;;8.65;;
27618;SDS011;15039;50.830;4.730;2023-05-28T06:51:45;12.27;;;7.13;;
27618;SDS011;15039;50.830;4.730;2023-05-28T06:54:11;11.60;;;6.75;;
27618;SDS011;15039;50.830;4.730;2023-05-28T06:56:37;12.98;;;7.38;;
27618;SDS011;15039;50.830;4.730;2023-05-28T06:59:02;13.77;;;7.78;;
27618;SDS011;15039;50.830;4.730;2023-05-28T07:01:28;12.18;;;7.45;;
27618;SDS011;15039;50.830;4.730;2023-05-28T07:03:53;14.88;;;7.68;;
27618;SDS011;15039;50.830;4.730;2023-05-28T07:06:19;12.30;;;6.70;;
27618;SDS011;15039;50.830;4.730;2023-05-28T07:08:45;14.60;;;7.75;;
27618;SDS011;15039;50.830;4.730;2023-05-28T07:11:11;13.38;;;6.88;;
27618;SDS011;15039;50.830;4.730;2023-05-28T07:13:38;14.15;;;7.78;;
27618;SDS011;15039;50.830;4.730;2023-05-28T07:16:04;12.05;;;7.35;;
27618;SDS011;15039;50.830;4.730;2023-05-28T07:18:30;15.32;;;7.53;;
27618;SDS011;15039;50.830;4.730;2023-05-28T07:20:56;12.77;;;6.82;;
27618;SDS011;15039;50.830;4.730;2023-05-28T07:23:21;12.75;;;6.75;;
27618;SDS011;15039;50.830;4.730;2023-05-28T07:25:47;11.68;;;7.13;;
27618;SDS011;15039;50.830;4.730;2023-05-28T07:28:13;11.98;;;6.22;;
27618;SDS011;15039;50.830;4.730;2023-05-28T07:30:40;11.93;;;6.40;;
27618;SDS011;15039;50.830;4.730;2023-05-28T07:33:06;13.80;;;6.70;;
27618;SDS011;15039;50.830;4.730;2023-05-28T07:35:32;11.38;;;6.65;;
27618;SDS011;15039;50.830;4.730;2023-05-28T07:37:57;12.68;;;6.63;;
27618;SDS011;15039;50.830;4.730;2023-05-28T07:40:23;10.32;;;7.13;;
27618;SDS011;15039;50.830;4.730;2023-05-28T07:42:49;8.70;;;6.13;;
27618;SDS011;15039;50.830;4.730;2023-05-28T07:45:14;13.77;;;6.45;;
27618;SDS011;15039;50.830;4.730;2023-05-28T07:47:40;14.68;;;6.88;;
27618;SDS011;15039;50.830;4.730;2023-05-28T07:50:06;11.32;;;6.40;;
27618;SDS011;15039;50.830;4.730;2023-05-28T07:52:32;11.27;;;6.68;;
27618;SDS011;15039;50.830;4.730;2023-05-28T07:54:58;13.80;;;6.68;;
27618;SDS011;15039;50.830;4.730;2023-05-28T07:57:25;11.88;;;6.40;;
27618;SDS011;15039;50.830;4.730;2023-05-28T07:59:50;9.52;;;5.95;;
27618;SDS011;15039;50.830;4.730;2023-05-28T08:02:16;14.27;;;6.88;;
27618;SDS011;15039;50.830;4.730;2023-05-28T08:04:42;10.82;;;6.15;;
27618;SDS011;15039;50.830;4.730;2023-05-28T08:07:08;10.70;;;5.50;;
27618;SDS011;15039;50.830;4.730;2023-05-28T08:09:37;9.18;;;5.68;;
27618;SDS011;15039;50.830;4.730;2023-05-28T08:12:05;11.68;;;6.13;;
27618;SDS011;15039;50.830;4.730;2023-05-28T08:14:31;10.48;;;5.63;;
27618;SDS011;15039;50.830;4.730;2023-05-28T08:16:57;11.40;;;5.90;;
27618;SDS011;15039;50.830;4.730;2023-05-28T08:19:23;12.18;;;6.45;;
27618;SDS011;15039;50.830;4.730;2023-05-28T08:21:49;11.82;;;6.38;;
27618;SDS011;15039;50.830;4.730;2023-05-28T08:24:14;12.05;;;6.45;;
27618;SDS011;15039;50.830;4.730;2023-05-28T08:26:43;12.38;;;6.38;;
27618;SDS011;15039;50.830;4.730;2023-05-28T08:29:09;11.07;;;5.57;;
27618;SDS011;15039;50.830;4.730;2023-05-28T08:31:35;8.85;;;5.38;;
27618;SDS011;15039;50.830;4.730;2023-05-28T08:34:01;9.77;;;5.68;;
27618;SDS011;15039;50.830;4.730;2023-05-28T08:36:26;10.40;;;5.53;;
27618;SDS011;15039;50.830;4.730;2023-05-28T08:38:52;11.85;;;5.55;;
27618;SDS011;15039;50.830;4.730;2023-05-28T08:41:18;11.27;;;5.85;;
27618;SDS011;15039;50.830;4.730;2023-05-28T08:43:45;10.15;;;4.93;;
27618;SDS011;15039;50.830;4.730;2023-05-28T08:46:11;11.88;;;6.05;;
27618;SDS011;15039;50.830;4.730;2023-05-28T08:48:37;8.65;;;4.78;;
27618;SDS011;15039;50.830;4.730;2023-05-28T08:51:06;9.57;;;5.22;;
27618;SDS011;15039;50.830;4.730;2023-05-28T08:53:36;11.77;;;5.22;;
27618;SDS011;15039;50.830;4.730;2023-05-28T08:56:10;10.68;;;5.20;;
27618;SDS011;15039;50.830;4.730;2023-05-28T08:58:37;11.82;;;5.50;;
27618;SDS011;15039;50.830;4.730;2023-05-28T09:01:06;9.77;;;5.38;;
27618;SDS011;15039;50.830;4.730;2023-05-28T09:03:33;10.10;;;4.88;;
27618;SDS011;15039;50.830;4.730;2023-05-28T09:05:59;7.97;;;5.25;;
27618;SDS011;15039;50.830;4.730;2023-05-28T09:08:25;11.95;;;4.82;;
27618;SDS011;15039;50.830;4.730;2023-05-28T09:10:51;10.23;;;5.07;;
27618;SDS011;15039;50.830;4.730;2023-05-28T09:13:20;10.63;;;5.00;;
27618;SDS011;15039;50.830;4.730;2023-05-28T09:15:50;7.82;;;4.40;;
27618;SDS011;15039;50.830;4.730;2023-05-28T09:18:19;12.98;;;5.25;;
27618;SDS011;15039;50.830;4.730;2023-05-28T09:20:46;11.13;;;5.00;;
27618;SDS011;15039;50.830;4.730;2023-05-28T09:23:15;8.65;;;4.72;;
27618;SDS011;15039;50.830;4.730;2023-05-28T09:25:42;10.80;;;4.45;;
27618;SDS011;15039;50.830;4.730;2023-05-28T09:28:10;9.52;;;4.70;;
27618;SDS011;15039;50.830;4.730;2023-05-28T09:30:40;16.92;;;5.55;;
27618;SDS011;15039;50.830;4.730;2023-05-28T09:33:06;9.77;;;4.97;;
27618;SDS011;15039;50.830;4.730;2023-05-28T09:35:34;10.32;;;4.65;;
27618;SDS011;15039;50.830;4.730;2023-05-28T09:38:04;8.88;;;4.03;;
27618;SDS011;15039;50.830;4.730;2023-05-28T09:40:40;7.80;;;4.68;;
27618;SDS011;15039;50.830;4.730;2023-05-28T09:43:07;9.35;;;4.47;;
27618;SDS011;15039;50.830;4.730;2023-05-28T09:45:33;9.55;;;4.75;;
27618;SDS011;15039;50.830;4.730;2023-05-28T09:48:00;11.93;;;5.03;;
27618;SDS011;15039;50.830;4.730;2023-05-28T09:50:26;8.93;;;4.38;;
27618;SDS011;15039;50.830;4.730;2023-05-28T09:52:56;11.07;;;4.93;;
27618;SDS011;15039;50.830;4.730;2023-05-28T09:55:27;10.82;;;4.78;;
27618;SDS011;15039;50.830;4.730;2023-05-28T09:58:03;7.90;;;4.50;;
27618;SDS011;15039;50.830;4.730;2023-05-28T10:03:33;6.03;;;4.40;;
27618;SDS011;15039;50.830;4.730;2023-05-28T10:06:11;7.78;;;4.35;;
27618;SDS011;15039;50.830;4.730;2023-05-28T10:11:13;10.35;;;4.55;;
27618;SDS011;15039;50.830;4.730;2023-05-28T10:13:41;11.45;;;4.63;;
27618;SDS011;15039;50.830;4.730;2023-05-28T10:16:07;7.18;;;3.83;;
27618;SDS011;15039;50.830;4.730;2023-05-28T10:18:34;12.98;;;4.80;;
27618;SDS011;15039;50.830;4.730;2023-05-28T10:21:00;6.30;;;4.00;;
27618;SDS011;15039;50.830;4.730;2023-05-28T10:23:26;7.03;;;3.65;;
27618;SDS011;15039;50.830;4.730;2023-05-28T10:25:53;11.02;;;4.05;;
27618;SDS011;15039;50.830;4.730;2023-05-28T10:28:20;9.55;;;4.28;;
27618;SDS011;15039;50.830;4.730;2023-05-28T10:30:47;7.65;;;3.97;;
27618;SDS011;15039;50.830;4.730;2023-05-28T10:33:29;8.85;;;4.10;;
27618;SDS011;15039;50.830;4.730;2023-05-28T10:35:56;10.73;;;3.63;;
27618;SDS011;15039;50.830;4.730;2023-05-28T10:38:24;6.30;;;3.17;;
27618;SDS011;15039;50.830;4.730;2023-05-28T10:40:50;7.53;;;3.95;;
27618;SDS011;15039;50.830;4.730;2023-05-28T10:46:08;8.10;;;3.83;;
27618;SDS011;15039;50.830;4.730;2023-05-28T10:48:41;7.15;;;3.40;;
27618;SDS011;15039;50.830;4.730;2023-05-28T10:54:22;8.90;;;4.07;;
27618;SDS011;15039;50.830;4.730;2023-05-28T11:04:59;8.77;;;4.15;;
27618;SDS011;15039;50.830;4.730;2023-05-28T11:07:29;8.07;;;3.60;;
27618;SDS011;15039;50.830;4.730;2023-05-28T11:10:00;6.18;;;3.20;;
27618;SDS011;15039;50.830;4.730;2023-05-28T11:12:30;6.80;;;3.40;;
27618;SDS011;15039;50.830;4.730;2023-05-28T11:14:56;8.32;;;3.58;;
27618;SDS011;15039;50.830;4.730;2023-05-28T11:17:22;8.63;;;3.70;;
27618;SDS011;15039;50.830;4.730;2023-05-28T11:19:49;10.32;;;3.90;;
27618;SDS011;15039;50.830;4.730;2023-05-28T11:22:16;5.53;;;3.22;;
27618;SDS011;15039;50.830;4.730;2023-05-28T11:25:02;8.30;;;3.15;;
27618;SDS011;15039;50.830;4.730;2023-05-28T11:27:30;7.78;;;3.30;;
27618;SDS011;15039;50.830;4.730;2023-05-28T11:29:59;6.90;;;2.88;;
27618;SDS011;15039;50.830;4.730;2023-05-28T11:32:27;5.15;;;2.65;;
27618;SDS011;15039;50.830;4.730;2023-05-28T11:34:54;5.63;;;3.30;;
27618;SDS011;15039;50.830;4.730;2023-05-28T11:37:24;9.75;;;3.22;;
27618;SDS011;15039;50.830;4.730;2023-05-28T11:39:55;5.18;;;3.03;;
27618;SDS011;15039;50.830;4.730;2023-05-28T11:42:22;6.07;;;2.90;;
27618;SDS011;15039;50.830;4.730;2023-05-28T11:44:49;7.53;;;2.70;;
27618;SDS011;15039;50.830;4.730;2023-05-28T11:47:18;7.53;;;3.75;;
27618;SDS011;15039;50.830;4.730;2023-05-28T11:49:45;4.78;;;2.97;;
27618;SDS011;15039;50.830;4.730;2023-05-28T11:52:12;5.85;;;3.53;;
27618;SDS011;15039;50.830;4.730;2023-05-28T11:54:53;5.43;;;3.10;;
27618;SDS011;15039;50.830;4.730;2023-05-28T11:57:25;7.65;;;3.22;;
27618;SDS011;15039;50.830;4.730;2023-05-28T11:59:55;6.55;;;3.00;;
27618;SDS011;15039;50.830;4.730;2023-05-28T12:02:24;7.13;;;2.92;;
27618;SDS011;15039;50.830;4.730;2023-05-28T12:07:32;6.18;;;3.10;;
27618;SDS011;15039;50.830;4.730;2023-05-28T12:12:39;7.65;;;3.15;;
27618;SDS011;15039;50.830;4.730;2023-05-28T12:15:06;7.13;;;3.50;;
27618;SDS011;15039;50.830;4.730;2023-05-28T12:17:36;7.68;;;3.00;;
27618;SDS011;15039;50.830;4.730;2023-05-28T12:22:38;7.65;;;3.33;;
27618;SDS011;15039;50.830;4.730;2023-05-28T12:25:04;5.18;;;3.22;;
27618;SDS011;15039;50.830;4.730;2023-05-28T12:27:31;6.97;;;2.80;;
27618;SDS011;15039;50.830;4.730;2023-05-28T12:29:57;7.25;;;3.05;;
27618;SDS011;15039;50.830;4.730;2023-05-28T12:32:22;8.57;;;2.83;;
27618;SDS011;15039;50.830;4.730;2023-05-28T12:34:48;6.35;;;2.90;;
27618;SDS011;15039;50.830;4.730;2023-05-28T12:37:16;7.07;;;3.17;;
27618;SDS011;15039;50.830;4.730;2023-05-28T12:39:42;10.77;;;3.08;;
27618;SDS011;15039;50.830;4.730;2023-05-28T12:42:08;5.20;;;2.70;;
27618;SDS011;15039;50.830;4.730;2023-05-28T12:44:34;10.15;;;3.35;;
27618;SDS011;15039;50.830;4.730;2023-05-28T12:46:59;4.47;;;2.65;;
27618;SDS011;15039;50.830;4.730;2023-05-28T12:49:25;7.65;;;3.22;;
27618;SDS011;15039;50.830;4.730;2023-05-28T12:51:51;6.20;;;3.05;;
27618;SDS011;15039;50.830;4.730;2023-05-28T12:54:16;5.40;;;3.17;;
27618;SDS011;15039;50.830;4.730;2023-05-28T12:56:42;7.88;;;2.83;;
27618;SDS011;15039;50.830;4.730;2023-05-28T12:59:09;7.90;;;3.42;;
27618;SDS011;15039;50.830;4.730;2023-05-28T13:01:45;6.93;;;3.28;;
27618;SDS011;15039;50.830;4.730;2023-05-28T13:04:10;7.63;;;3.05;;
27618;SDS011;15039;50.830;4.730;2023-05-28T13:06:36;10.68;;;3.25;;
27618;SDS011;15039;50.830;4.730;2023-05-28T13:09:02;9.02;;;3.38;;
27618;SDS011;15039;50.830;4.730;2023-05-28T13:11:28;5.22;;;3.10;;
27618;SDS011;15039;50.830;4.730;2023-05-28T13:13:54;7.65;;;2.97;;
27618;SDS011;15039;50.830;4.730;2023-05-28T13:16:20;6.25;;;2.85;;
27618;SDS011;15039;50.830;4.730;2023-05-28T13:18:45;7.75;;;3.15;;
27618;SDS011;15039;50.830;4.730;2023-05-28T13:21:12;6.63;;;3.22;;
27618;SDS011;15039;50.830;4.730;2023-05-28T13:23:38;8.60;;;3.05;;
27618;SDS011;15039;50.830;4.730;2023-05-28T13:26:03;5.97;;;3.20;;
27618;SDS011;15039;50.830;4.730;2023-05-28T13:28:29;5.53;;;2.95;;
27618;SDS011;15039;50.830;4.730;2023-05-28T13:30:54;7.38;;;2.65;;
27618;SDS011;15039;50.830;4.730;2023-05-28T13:33:20;5.90;;;3.63;;
27618;SDS011;15039;50.830;4.730;2023-05-28T13:35:46;7.28;;;3.00;;
27618;SDS011;15039;50.830;4.730;2023-05-28T13:38:11;6.15;;;3.30;;
27618;SDS011;15039;50.830;4.730;2023-05-28T13:40:37;5.90;;;2.97;;
27618;SDS011;15039;50.830;4.730;2023-05-28T13:43:03;4.82;;;2.90;;
27618;SDS011;15039;50.830;4.730;2023-05-28T13:45:29;6.40;;;2.92;;
27618;SDS011;15039;50.830;4.730;2023-05-28T13:47:56;4.85;;;2.92;;
27618;SDS011;15039;50.830;4.730;2023-05-28T13:50:22;8.30;;;3.03;;
27618;SDS011;15039;50.830;4.730;2023-05-28T13:52:47;5.82;;;2.70;;
27618;SDS011;15039;50.830;4.730;2023-05-28T13:55:13;6.82;;;3.28;;
27618;SDS011;15039;50.830;4.730;2023-05-28T13:57:39;7.20;;;3.17;;
27618;SDS011;15039;50.830;4.730;2023-05-28T14:00:04;7.00;;;2.97;;
27618;SDS011;15039;50.830;4.730;2023-05-28T14:02:34;6.93;;;3.10;;
27618;SDS011;15039;50.830;4.730;2023-05-28T14:05:00;5.95;;;2.60;;
27618;SDS011;15039;50.830;4.730;2023-05-28T14:07:26;6.78;;;3.30;;
27618;SDS011;15039;50.830;4.730;2023-05-28T14:09:52;6.47;;;2.83;;
27618;SDS011;15039;50.830;4.730;2023-05-28T14:12:17;5.20;;;3.20;;
27618;SDS011;15039;50.830;4.730;2023-05-28T14:14:43;6.38;;;3.05;;
27618;SDS011;15039;50.830;4.730;2023-05-28T14:17:08;5.95;;;2.97;;
27618;SDS011;15039;50.830;4.730;2023-05-28T14:19:34;4.78;;;2.90;;
27618;SDS011;15039;50.830;4.730;2023-05-28T14:22:00;7.68;;;3.22;;
27618;SDS011;15039;50.830;4.730;2023-05-28T14:24:25;6.15;;;3.50;;
27618;SDS011;15039;50.830;4.730;2023-05-28T14:26:51;8.00;;;3.10;;
27618;SDS011;15039;50.830;4.730;2023-05-28T14:29:17;8.48;;;2.78;;
27618;SDS011;15039;50.830;4.730;2023-05-28T14:31:42;7.93;;;3.40;;
27618;SDS011;15039;50.830;4.730;2023-05-28T14:34:09;5.70;;;2.95;;
27618;SDS011;15039;50.830;4.730;2023-05-28T14:36:34;4.32;;;2.70;;
27618;SDS011;15039;50.830;4.730;2023-05-28T14:39:00;8.68;;;3.50;;
27618;SDS011;15039;50.830;4.730;2023-05-28T14:41:26;6.90;;;3.38;;
27618;SDS011;15039;50.830;4.730;2023-05-28T14:43:52;6.70;;;2.90;;
27618;SDS011;15039;50.830;4.730;2023-05-28T14:46:18;6.40;;;3.17;;
27618;SDS011;15039;50.830;4.730;2023-05-28T14:48:43;5.03;;;2.60;;
27618;SDS011;15039;50.830;4.730;2023-05-28T14:51:09;4.22;;;3.08;;
27618;SDS011;15039;50.830;4.730;2023-05-28T14:53:36;5.90;;;3.10;;
27618;SDS011;15039;50.830;4.730;2023-05-28T14:56:02;5.85;;;2.95;;
27618;SDS011;15039;50.830;4.730;2023-05-28T14:58:27;8.82;;;2.80;;
27618;SDS011;15039;50.830;4.730;2023-05-28T15:00:55;4.90;;;2.67;;
27618;SDS011;15039;50.830;4.730;2023-05-28T15:03:21;9.45;;;3.22;;
27618;SDS011;15039;50.830;4.730;2023-05-28T15:05:47;8.10;;;3.10;;
27618;SDS011;15039;50.830;4.730;2023-05-28T15:08:13;5.88;;;2.80;;